Time;durP1;ratioP1;P1;durP2;ratioP2;P2;SDS_P1;SDS_P2;PMS_P1;PMS_P2;Temp;Humidity;BMP_temperature;BMP_pressure;BME280_temperature;BME280_humidity;BME280_pressure;Samples;Min_cycle;Max_cycle;Signal;HPM_P1;HPM_P2
2022/12/11 00:02:07;;;;;;;0.50;0.50;;;;;;;10.27;100.00;97538.56;5114866;28;20198;-62
2022/12/11 00:04:34;;;;;;;0.53;0.53;;;;;;;10.32;100.00;97539.09;5114744;28;20202;-62
2022/12/11 00:07:01;;;;;;;0.50;0.50;;;;;;;10.37;100.00;97533.72;5114711;28;20251;-61
2022/12/11 00:09:28;;;;;;;0.60;0.60;;;;;;;10.39;100.00;97512.22;5114375;28;20214;-62
2022/12/11 00:11:55;;;;;;;0.50;0.50;;;;;;;10.37;100.00;97503.78;5114315;27;20662;-62
2022/12/11 00:14:21;;;;;;;1.27;1.27;;;;;;;10.33;100.00;97492.09;5112489;28;20263;-62
2022/12/11 00:16:48;;;;;;;0.40;0.40;;;;;;;10.37;100.00;97503.78;5114574;28;20244;-62
2022/12/11 00:19:17;;;;;;;0.40;0.40;;;;;;;10.30;100.00;97474.34;5114484;27;20195;-63
2022/12/11 00:21:44;;;;;;;0.50;0.50;;;;;;;10.29;100.00;97474.44;5114133;28;20207;-62
2022/12/11 00:24:11;;;;;;;0.97;0.80;;;;;;;10.16;100.00;97458.97;5112374;28;20206;-62
2022/12/11 00:26:38;;;;;;;1.17;1.07;;;;;;;10.16;100.00;97438.50;5114332;28;20203;-62
2022/12/11 00:29:07;;;;;;;0.40;0.40;;;;;;;10.17;100.00;97449.56;5114275;28;20642;-62
2022/12/11 00:31:33;;;;;;;0.40;0.40;;;;;;;10.22;100.00;97435.56;5111681;28;20662;-62
2022/12/11 00:34:02;;;;;;;0.50;0.50;;;;;;;10.30;100.00;97425.72;5114335;28;20202;-62
2022/12/11 00:36:30;;;;;;;0.77;0.77;;;;;;;10.32;100.00;97428.97;5114200;28;20290;-62
2022/12/11 00:38:57;;;;;;;0.80;0.80;;;;;;;10.27;100.00;97425.91;5113706;28;20222;-62
2022/12/11 00:41:24;;;;;;;0.50;0.50;;;;;;;10.23;100.00;97421.88;5114191;28;20198;-62
2022/12/11 00:43:51;;;;;;;0.50;0.50;;;;;;;10.44;100.00;97440.22;5112927;28;20199;-62
2022/12/11 00:46:18;;;;;;;0.50;0.50;;;;;;;10.47;100.00;97463.06;5114295;28;20248;-62
2022/12/11 00:48:47;;;;;;;1.00;1.00;;;;;;;10.56;100.00;97441.22;5113723;27;20213;-62
2022/12/11 00:51:14;;;;;;;1.20;1.10;;;;;;;10.49;100.00;97456.13;5112580;28;20745;-62
2022/12/11 00:53:42;;;;;;;0.80;0.80;;;;;;;10.45;100.00;97444.44;5113821;28;20214;-62
2022/12/11 00:56:11;;;;;;;0.67;0.67;;;;;;;10.46;100.00;97452.03;5113739;27;20187;-62
2022/12/11 00:58:38;;;;;;;0.47;0.47;;;;;;;10.51;100.00;97455.13;5113686;28;20244;-62
2022/12/11 01:01:09;;;;;;;0.47;0.47;;;;;;;10.61;100.00;97431.50;5111450;28;20195;-62
2022/12/11 01:03:36;;;;;;;0.70;0.70;;;;;;;10.67;100.00;97408.88;5112806;28;20252;-62
2022/12/11 01:06:04;;;;;;;0.50;0.50;;;;;;;10.75;100.00;97413.53;5113610;28;20195;-62
2022/12/11 01:08:31;;;;;;;1.70;1.70;;;;;;;10.85;100.00;97428.25;5113211;28;20205;-62
2022/12/11 01:11:03;;;;;;;0.50;0.50;;;;;;;10.75;100.00;97385.34;5111469;28;20559;-62
2022/12/11 01:13:30;;;;;;;0.73;0.73;;;;;;;10.94;100.00;97396.09;5113617;28;20190;-62
2022/12/11 01:15:57;;;;;;;0.60;0.60;;;;;;;10.96;100.00;97394.25;5113851;28;20543;-62
2022/12/11 01:18:26;;;;;;;0.43;0.43;;;;;;;11.06;100.00;97391.00;5113411;28;20203;-63
2022/12/11 01:20:53;;;;;;;0.60;0.60;;;;;;;11.17;100.00;97382.63;5112856;28;20220;-63
2022/12/11 01:23:20;;;;;;;0.60;0.60;;;;;;;11.30;100.00;97375.78;5113000;28;20689;-63
2022/12/11 01:25:46;;;;;;;1.33;1.23;;;;;;;11.33;100.00;97378.16;5112399;28;20658;-63
2022/12/11 01:28:15;;;;;;;0.43;0.43;;;;;;;11.38;100.00;97363.25;5111791;28;20199;-62
2022/12/11 01:30:42;;;;;;;0.90;0.90;;;;;;;11.41;100.00;97370.75;5113123;28;20284;-62
2022/12/11 01:33:09;;;;;;;0.40;0.40;;;;;;;11.53;100.00;97353.75;5113259;28;20213;-62
2022/12/11 01:35:38;;;;;;;0.43;0.43;;;;;;;11.57;100.00;97361.13;5111610;28;20199;-62
2022/12/11 01:38:05;;;;;;;0.60;0.60;;;;;;;11.53;100.00;97334.03;5111913;28;20226;-62
2022/12/11 01:40:31;;;;;;;0.33;0.33;;;;;;;11.63;100.00;97339.38;5112514;28;20635;-62
2022/12/11 01:42:58;;;;;;;0.40;0.40;;;;;;;11.63;100.00;97302.63;5112172;28;20236;-63
2022/12/11 01:45:39;;;;;;;0.57;0.57;;;;;;;11.64;100.00;97281.16;5111877;28;20198;-62
2022/12/11 01:48:09;;;;;;;0.40;0.40;;;;;;;11.65;100.00;97273.38;5112238;28;20569;-62
2022/12/11 01:50:41;;;;;;;0.50;0.50;;;;;;;11.53;100.00;97264.75;5109511;28;20268;-63
2022/12/11 01:53:12;;;;;;;0.70;0.70;;;;;;;11.51;100.00;97268.34;5112780;28;20198;-62
2022/12/11 01:55:41;;;;;;;0.50;0.50;;;;;;;11.63;100.00;97276.97;5112672;28;20226;-62
2022/12/11 01:58:10;;;;;;;1.00;1.00;;;;;;;11.69;100.00;97281.69;5112943;28;20195;-62
2022/12/11 02:00:39;;;;;;;0.60;0.60;;;;;;;11.72;100.00;97266.13;5112729;28;22308;-63
2022/12/11 02:03:05;;;;;;;0.60;0.60;;;;;;;11.67;100.00;97239.91;5112369;28;20199;-62
2022/12/11 02:05:32;;;;;;;0.70;0.70;;;;;;;11.67;100.00;97268.13;5112422;28;20195;-62
2022/12/11 02:08:02;;;;;;;1.27;1.10;;;;;;;11.79;100.00;97305.84;5111220;28;20268;-62
2022/12/11 02:10:41;;;;;;;0.40;0.40;;;;;;;11.87;100.00;97290.72;5112019;28;20210;-63
2022/12/11 02:13:15;;;;;;;0.60;0.60;;;;;;;11.90;100.00;97291.34;5109297;28;20256;-63
2022/12/11 02:15:49;;;;;;;0.50;0.50;;;;;;;12.03;100.00;97299.81;5111581;28;20567;-62
2022/12/11 02:18:24;;;;;;;0.43;0.43;;;;;;;12.08;100.00;97273.84;5112205;28;20198;-63
2022/12/11 02:20:58;;;;;;;0.40;0.40;;;;;;;12.16;100.00;97265.56;5111601;28;20191;-62
2022/12/11 02:24:07;;;;;;;0.50;0.50;;;;;;;12.26;100.00;97287.13;5112092;28;20209;-62
2022/12/11 02:26:56;;;;;;;0.57;0.57;;;;;;;12.29;100.00;97274.06;5111678;28;20195;-63
2022/12/11 02:29:29;;;;;;;0.40;0.40;;;;;;;12.41;100.00;97274.00;5112057;28;20566;-62
2022/12/11 02:32:03;;;;;;;0.40;0.40;;;;;;;12.52;100.00;97284.34;5111941;28;20267;-62
2022/12/11 02:34:34;;;;;;;0.50;0.50;;;;;;;12.56;100.00;97265.22;5111817;28;20253;-62
2022/12/11 02:37:07;;;;;;;0.50;0.50;;;;;;;12.62;100.00;97264.78;5108920;28;21148;-62
2022/12/11 02:39:38;;;;;;;0.60;0.60;;;;;;;12.62;100.00;97253.66;5111614;27;20205;-62
2022/12/11 02:42:07;;;;;;;0.53;0.53;;;;;;;12.61;100.00;97228.91;5109331;28;20226;-62
2022/12/11 02:44:40;;;;;;;1.07;1.07;;;;;;;12.72;100.00;97261.53;5111542;28;20251;-62
2022/12/11 02:47:11;;;;;;;0.43;0.43;;;;;;;12.84;100.00;97294.06;5108790;28;20658;-62
2022/12/11 02:49:40;;;;;;;0.50;0.50;;;;;;;12.91;100.00;97248.97;5111525;28;20210;-64
2022/12/11 02:52:10;;;;;;;0.53;0.53;;;;;;;13.04;100.00;97226.56;5110952;28;20251;-63
2022/12/11 02:54:39;;;;;;;0.40;0.40;;;;;;;13.18;100.00;97241.81;5111584;28;20259;-62
2022/12/11 02:57:11;;;;;;;0.90;0.90;;;;;;;13.21;100.00;97251.88;5109893;28;20255;-62
2022/12/11 02:59:43;;;;;;;0.60;0.60;;;;;;;13.29;100.00;97246.97;5109459;28;20267;-62
2022/12/11 03:02:12;;;;;;;0.40;0.40;;;;;;;13.41;100.00;97232.38;5110616;27;20198;-63
2022/12/11 03:04:40;;;;;;;0.50;0.50;;;;;;;13.43;100.00;97240.78;5111508;28;20205;-62
2022/12/11 03:07:12;;;;;;;0.60;0.60;;;;;;;13.49;100.00;97238.56;5108164;28;20619;-63
2022/12/11 03:09:39;;;;;;;0.50;0.50;;;;;;;13.57;100.00;97228.50;5111426;28;20195;-64
2022/12/11 03:12:07;;;;;;;0.47;0.47;;;;;;;13.64;100.00;97239.97;5111060;28;20209;-62
2022/12/11 03:14:34;;;;;;;0.40;0.40;;;;;;;13.58;100.00;97237.03;5111615;28;20203;-62
2022/12/11 03:17:08;;;;;;;0.50;0.50;;;;;;;13.75;100.00;97235.75;5111058;28;20194;-63
2022/12/11 03:19:37;;;;;;;0.60;0.60;;;;;;;13.75;100.00;97246.88;5109870;28;20696;-63
2022/12/11 03:22:10;;;;;;;0.40;0.40;;;;;;;13.71;100.00;97262.66;5111021;28;20196;-62
2022/12/11 03:24:42;;;;;;;0.50;0.50;;;;;;;13.69;100.00;97267.94;5111258;28;20203;-62
2022/12/11 03:27:16;;;;;;;0.60;0.60;;;;;;;13.68;100.00;97261.97;5111193;28;20199;-63
2022/12/11 03:29:51;;;;;;;0.43;0.43;;;;;;;13.62;100.00;97235.88;5111596;28;20201;-62
2022/12/11 03:32:26;;;;;;;0.50;0.50;;;;;;;13.75;100.00;97261.50;5111425;28;20206;-62
2022/12/11 03:34:59;;;;;;;0.50;0.50;;;;;;;13.74;100.00;97259.84;5108823;28;20198;-62
2022/12/11 03:37:31;;;;;;;0.50;0.50;;;;;;;13.77;100.00;97259.63;5109925;28;20234;-62
2022/12/11 03:40:02;;;;;;;0.50;0.50;;;;;;;13.88;100.00;97273.31;5111141;28;20202;-62
2022/12/11 03:42:29;;;;;;;0.70;0.70;;;;;;;13.87;100.00;97278.56;5110248;28;20192;-62
2022/12/11 03:44:59;;;;;;;0.50;0.50;;;;;;;13.60;100.00;97289.25;5110919;28;20204;-62
2022/12/11 03:47:29;;;;;;;0.80;0.80;;;;;;;13.27;100.00;97287.44;5109633;28;20195;-62
2022/12/11 03:49:58;;;;;;;0.40;0.40;;;;;;;13.23;100.00;97270.59;5110669;28;20190;-62
2022/12/11 03:52:27;;;;;;;0.70;0.70;;;;;;;13.12;100.00;97291.13;5108258;28;20198;-61
2022/12/11 03:54:57;;;;;;;0.50;0.50;;;;;;;13.02;100.00;97298.66;5110705;28;20732;-62
2022/12/11 03:57:29;;;;;;;0.70;0.70;;;;;;;12.85;100.00;97300.84;5110245;28;20666;-62
2022/12/11 03:59:56;;;;;;;0.50;0.50;;;;;;;12.69;100.00;97287.47;5109604;28;20211;-62
2022/12/11 04:02:23;;;;;;;0.40;0.40;;;;;;;12.69;100.00;97274.63;5109080;28;20195;-62
2022/12/11 04:04:51;;;;;;;0.40;0.40;;;;;;;12.55;100.00;97278.16;5110511;28;20586;-62
2022/12/11 04:07:18;;;;;;;1.13;1.13;;;;;;;12.34;100.00;97303.63;5110710;28;20195;-62
2022/12/11 04:09:45;;;;;;;0.80;0.80;;;;;;;12.25;100.00;97265.75;5110798;28;20230;-62
2022/12/11 04:12:12;;;;;;;0.57;0.57;;;;;;;12.21;100.00;97269.50;5106677;28;20281;-62
2022/12/11 04:25:34;;;;;;;0.47;0.47;;;;;;;12.05;100.00;97266.34;5110138;28;20198;-62
2022/12/11 04:28:01;;;;;;;0.50;0.50;;;;;;;12.06;100.00;97278.25;5109676;28;20195;-62
2022/12/11 04:30:28;;;;;;;0.50;0.50;;;;;;;11.97;100.00;97271.19;5110958;28;20268;-62
2022/12/11 04:32:55;;;;;;;0.40;0.40;;;;;;;11.90;100.00;97299.03;5109195;28;20256;-62
2022/12/11 04:35:23;;;;;;;0.57;0.57;;;;;;;11.85;100.00;97287.44;5112404;28;20210;-62
2022/12/11 04:37:51;;;;;;;0.50;0.50;;;;;;;11.85;100.00;97282.31;5113796;28;20276;-62
2022/12/11 04:40:19;;;;;;;0.40;0.40;;;;;;;11.76;100.00;97296.56;5114249;28;20197;-61
2022/12/11 04:42:46;;;;;;;0.67;0.67;;;;;;;11.64;100.00;97269.16;5114071;28;20268;-62
2022/12/11 04:45:13;;;;;;;0.40;0.40;;;;;;;11.73;100.00;97283.16;5113340;28;20226;-62
2022/12/11 04:47:41;;;;;;;0.40;0.40;;;;;;;11.66;100.00;97269.06;5114043;27;20199;-62
2022/12/11 04:50:11;;;;;;;0.30;0.30;;;;;;;11.66;100.00;97261.38;5113792;28;20202;-62
2022/12/11 04:52:40;;;;;;;0.50;0.50;;;;;;;11.82;100.00;97270.50;5112677;28;20195;-62
2022/12/11 04:55:08;;;;;;;0.70;0.70;;;;;;;11.80;100.00;97284.34;5113496;28;20569;-62
2022/12/11 04:57:35;;;;;;;0.60;0.60;;;;;;;11.85;100.00;97284.88;5113864;28;20202;-63
2022/12/11 05:00:03;;;;;;;0.53;0.53;;;;;;;11.87;100.00;97290.72;5110532;28;20214;-62
2022/12/11 05:02:30;;;;;;;0.93;0.93;;;;;;;11.90;100.00;97285.38;5111281;28;20293;-64
2022/12/11 05:04:57;;;;;;;2.33;2.33;;;;;;;11.72;100.00;97284.06;5113492;28;20289;-62
2022/12/11 05:07:24;;;;;;;0.70;0.70;;;;;;;11.49;100.00;97286.44;5113538;28;20208;-62
2022/12/11 05:09:55;;;;;;;1.10;1.10;;;;;;;11.55;100.00;97301.41;5113366;28;20286;-62
2022/12/11 05:12:22;;;;;;;0.80;0.80;;;;;;;11.66;100.00;97297.28;5111646;28;20218;-62
2022/12/11 05:14:51;;;;;;;0.60;0.60;;;;;;;11.64;100.00;97286.28;5111949;28;20674;-62
2022/12/11 05:17:19;;;;;;;0.60;0.60;;;;;;;11.53;100.00;97287.84;5109989;28;20202;-63
2022/12/11 05:19:47;;;;;;;0.57;0.57;;;;;;;11.33;100.00;97300.38;5112993;28;20225;-62
2022/12/11 05:22:14;;;;;;;0.50;0.50;;;;;;;11.46;100.00;97302.03;5110325;28;20214;-63
2022/12/11 05:24:41;;;;;;;1.30;0.83;;;;;;;11.40;100.00;97276.78;5113743;28;20662;-63
2022/12/11 05:27:10;;;;;;;0.50;0.50;;;;;;;11.62;100.00;97306.94;5113322;28;20231;-62
2022/12/11 05:29:36;;;;;;;0.70;0.70;;;;;;;11.61;100.00;97300.16;5113113;28;20286;-66
2022/12/11 05:32:03;;;;;;;0.60;0.60;;;;;;;11.60;100.00;97304.47;5110959;28;20739;-66
2022/12/11 05:34:30;;;;;;;0.50;0.50;;;;;;;11.72;100.00;97312.31;5112712;27;20206;-66
2022/12/11 05:36:57;;;;;;;0.57;0.57;;;;;;;11.75;100.00;97310.34;5112931;28;20631;-67
2022/12/11 05:39:24;;;;;;;0.60;0.60;;;;;;;11.73;100.00;97316.53;5111910;28;20218;-66
2022/12/11 05:41:50;;;;;;;0.60;0.60;;;;;;;11.79;100.00;97331.50;5112648;28;20187;-66
2022/12/11 05:44:19;;;;;;;0.53;0.53;;;;;;;11.70;100.00;97332.06;5112832;28;20251;-66
2022/12/11 05:46:46;;;;;;;0.40;0.40;;;;;;;11.77;100.00;97351.31;5112731;28;20202;-67
2022/12/11 05:49:12;;;;;;;0.60;0.60;;;;;;;11.80;100.00;97358.78;5110781;28;20195;-66
2022/12/11 05:51:40;;;;;;;0.60;0.60;;;;;;;11.82;100.00;97339.81;5111940;28;20214;-67
2022/12/11 05:54:07;;;;;;;1.27;0.93;;;;;;;11.74;100.00;97359.22;5112094;28;20209;-66
2022/12/11 05:56:34;;;;;;;1.17;1.17;;;;;;;11.77;100.00;97361.56;5112316;28;20271;-66
2022/12/11 05:59:03;;;;;;;0.50;0.50;;;;;;;11.76;100.00;97365.88;5111667;28;20195;-66
2022/12/11 06:01:33;;;;;;;0.50;0.50;;;;;;;11.79;100.00;97362.31;5108950;28;20217;-66
2022/12/11 06:04:01;;;;;;;0.50;0.50;;;;;;;11.80;100.00;97361.38;5112602;27;20198;-66
2022/12/11 06:06:28;;;;;;;0.43;0.43;;;;;;;11.74;100.00;97356.66;5112310;28;20199;-66
2022/12/11 06:08:57;;;;;;;0.90;0.90;;;;;;;11.73;100.00;97357.59;5111341;28;20195;-66
2022/12/11 06:11:27;;;;;;;0.70;0.70;;;;;;;11.76;100.00;97367.66;5110353;28;20563;-66
2022/12/11 06:13:54;;;;;;;0.60;0.60;;;;;;;11.73;100.00;97358.38;5111970;28;20229;-66
2022/12/11 06:16:21;;;;;;;0.80;0.80;;;;;;;11.82;100.00;97391.16;5112113;28;20608;-65
2022/12/11 06:18:52;;;;;;;0.63;0.63;;;;;;;11.87;100.00;97389.09;5112119;28;20589;-66
2022/12/11 06:21:22;;;;;;;1.23;1.23;;;;;;;11.47;100.00;97339.56;5111133;28;20190;-68
2022/12/11 06:23:54;;;;;;;0.53;0.53;;;;;;;11.82;100.00;97390.34;5112089;28;20661;-70
2022/12/11 06:26:21;;;;;;;1.00;1.00;;;;;;;11.80;100.00;97399.88;5112113;28;20576;-67
2022/12/11 06:28:49;;;;;;;0.70;0.70;;;;;;;11.68;100.00;97383.50;5105408;28;20858;-66
2022/12/11 06:31:16;;;;;;;0.60;0.60;;;;;;;11.83;100.00;97412.50;5105756;28;20222;-67
2022/12/11 06:33:44;;;;;;;2.10;1.90;;;;;;;11.87;100.00;97398.53;5109263;28;20195;-66
2022/12/11 06:36:13;;;;;;;1.30;1.00;;;;;;;11.97;100.00;97413.22;5111358;28;20203;-66
2022/12/11 06:38:40;;;;;;;0.50;0.50;;;;;;;11.95;100.00;97417.66;5111635;28;20647;-67
2022/12/11 06:41:08;;;;;;;0.80;0.80;;;;;;;11.98;100.00;97411.50;5110523;28;20243;-67
2022/12/11 06:43:37;;;;;;;0.43;0.43;;;;;;;12.02;100.00;97397.50;5110596;28;20213;-67
2022/12/11 06:46:05;;;;;;;0.50;0.50;;;;;;;12.04;100.00;97409.31;5111308;28;20202;-67
2022/12/11 06:48:32;;;;;;;0.80;0.80;;;;;;;12.02;100.00;97412.91;5111439;28;20627;-67
2022/12/11 06:50:59;;;;;;;0.40;0.40;;;;;;;12.03;100.00;97420.50;5109148;28;20219;-67
2022/12/11 06:53:27;;;;;;;0.67;0.67;;;;;;;12.09;100.00;97421.84;5109773;28;20477;-67
2022/12/11 06:55:54;;;;;;;2.20;1.67;;;;;;;12.11;100.00;97417.44;5111134;28;20195;-67
2022/12/11 06:58:21;;;;;;;0.80;0.80;;;;;;;12.01;100.00;97418.97;5111116;28;20327;-67
2022/12/11 07:00:48;;;;;;;0.40;0.40;;;;;;;12.05;100.00;97433.25;5106725;28;20206;-67
2022/12/11 07:03:14;;;;;;;0.60;0.60;;;;;;;12.07;100.00;97426.28;5109583;28;20213;-67
2022/12/11 07:05:41;;;;;;;0.30;0.30;;;;;;;12.08;100.00;97433.06;5111264;28;20203;-67
2022/12/11 07:08:08;;;;;;;0.47;0.47;;;;;;;12.15;100.00;97426.56;5111084;28;20195;-67
2022/12/11 07:10:36;;;;;;;0.50;0.50;;;;;;;12.15;100.00;97424.00;5108493;28;20217;-67
2022/12/11 07:13:03;;;;;;;0.60;0.60;;;;;;;12.17;100.00;97432.44;5111062;28;20195;-67
2022/12/11 07:15:30;;;;;;;0.50;0.50;;;;;;;12.19;100.00;97434.88;5111341;28;20202;-67
2022/12/11 07:17:57;;;;;;;1.70;1.00;;;;;;;12.16;100.00;97429.94;5109767;28;20712;-68
2022/12/11 07:20:23;;;;;;;0.60;0.60;;;;;;;12.20;100.00;97421.13;5109442;28;20208;-67
2022/12/11 07:22:50;;;;;;;0.60;0.60;;;;;;;12.23;100.00;97421.75;5109856;28;20612;-66
2022/12/11 07:25:17;;;;;;;0.50;0.50;;;;;;;12.32;100.00;97420.28;5107746;28;20198;-70
2022/12/11 07:27:45;;;;;;;0.47;0.47;;;;;;;12.34;100.00;97432.09;5110616;28;20206;-67
2022/12/11 07:30:14;;;;;;;0.53;0.53;;;;;;;12.40;100.00;97426.56;5110115;28;20267;-67
2022/12/11 07:32:41;;;;;;;0.40;0.40;;;;;;;12.46;100.00;97438.97;5109104;28;20260;-65
2022/12/11 07:35:09;;;;;;;0.83;0.83;;;;;;;12.59;100.00;97434.63;5106118;28;20209;-67
2022/12/11 07:37:37;;;;;;;0.67;0.67;;;;;;;12.61;100.00;97437.06;5108716;28;20227;-67
2022/12/11 07:40:04;;;;;;;0.60;0.60;;;;;;;12.71;100.00;97437.25;5106614;28;20252;-67
2022/12/11 07:42:31;;;;;;;0.60;0.60;;;;;;;12.81;100.00;97435.69;5108677;28;20201;-67
2022/12/11 07:45:00;;;;;;;0.70;0.70;;;;;;;12.90;100.00;97437.59;5110462;28;20194;-67
2022/12/11 07:47:27;;;;;;;0.80;0.80;;;;;;;12.99;100.00;97434.38;5104490;28;20203;-67
2022/12/11 07:49:53;;;;;;;0.60;0.60;;;;;;;13.06;100.00;97433.84;5109170;28;20198;-67
2022/12/11 07:52:20;;;;;;;0.60;0.60;;;;;;;13.12;100.00;97433.44;5108912;28;20604;-67
2022/12/11 07:54:47;;;;;;;1.80;1.80;;;;;;;13.32;100.00;97433.75;5105782;28;20210;-67
2022/12/11 07:57:15;;;;;;;0.80;0.80;;;;;;;13.40;100.00;97442.56;5104385;28;20203;-67
2022/12/11 07:59:42;;;;;;;0.53;0.53;;;;;;;13.58;100.00;97441.22;5108070;28;20289;-67
2022/12/11 08:02:11;;;;;;;0.40;0.40;;;;;;;13.58;100.00;97430.94;5106075;28;20233;-67
2022/12/11 08:04:38;;;;;;;0.50;0.50;;;;;;;13.70;100.00;97439.50;5106327;28;20238;-67
2022/12/11 08:07:05;;;;;;;0.50;0.50;;;;;;;13.91;100.00;97473.16;5107937;28;20252;-67
2022/12/11 08:09:32;;;;;;;1.70;1.23;;;;;;;14.02;100.00;97460.31;5109000;28;20206;-68
2022/12/11 08:11:59;;;;;;;0.70;0.70;;;;;;;14.03;100.00;97464.50;5112133;28;20751;-67
2022/12/11 08:14:25;;;;;;;0.50;0.50;;;;;;;14.09;100.00;97471.75;5110747;28;20226;-67
2022/12/11 08:16:52;;;;;;;0.70;0.70;;;;;;;14.11;100.00;97477.66;5110594;28;20202;-68
2022/12/11 08:19:22;;;;;;;3.60;0.90;;;;;;;14.00;100.00;97452.69;5109695;28;20194;-67
2022/12/11 08:21:48;;;;;;;0.70;0.70;;;;;;;14.17;100.00;97459.16;5108647;28;20558;-65
2022/12/11 08:24:19;;;;;;;0.40;0.40;;;;;;;14.20;100.00;97458.91;5109851;28;20612;-66
2022/12/11 08:26:46;;;;;;;1.03;1.03;;;;;;;14.18;100.00;97445.34;5110721;28;20199;-65
2022/12/11 08:29:13;;;;;;;0.80;0.80;;;;;;;14.25;100.00;97430.22;5110534;28;20202;-66
2022/12/11 08:31:40;;;;;;;1.00;1.00;;;;;;;14.41;100.00;97418.63;5110670;28;20219;-66
2022/12/11 08:34:07;;;;;;;1.60;0.70;;;;;;;14.49;100.00;97426.59;5109313;28;20204;-67
2022/12/11 08:36:35;;;;;;;0.90;0.90;;;;;;;14.58;100.00;97437.97;5109021;28;20210;-67
2022/12/11 08:39:02;;;;;;;1.43;1.27;;;;;;;14.67;100.00;97432.91;5110386;28;20222;-66
2022/12/11 08:41:30;;;;;;;0.80;0.80;;;;;;;14.75;100.00;97426.34;5111308;28;20198;-67
2022/12/11 08:44:01;;;;;;;0.40;0.40;;;;;;;14.75;100.00;97424.59;5112299;28;20205;-67
2022/12/11 08:46:29;;;;;;;0.80;0.80;;;;;;;14.80;100.00;97421.66;5107466;28;20251;-67
2022/12/11 08:48:56;;;;;;;1.80;0.80;;;;;;;14.87;100.00;97433.09;5111268;28;20209;-66
2022/12/11 08:51:25;;;;;;;0.47;0.47;;;;;;;14.97;100.00;97439.19;5109751;28;20214;-67
2022/12/11 08:53:56;;;;;;;0.50;0.50;;;;;;;15.00;100.00;97438.94;5109526;28;20248;-68
2022/12/11 08:56:23;;;;;;;0.67;0.67;;;;;;;15.06;100.00;97443.63;5107958;28;20202;-67
2022/12/11 08:58:51;;;;;;;0.50;0.50;;;;;;;15.16;100.00;97449.69;5106467;28;20263;-66
2022/12/11 09:01:20;;;;;;;1.40;0.93;;;;;;;15.20;100.00;97451.09;5109809;28;20211;-66
2022/12/11 09:03:47;;;;;;;0.60;0.60;;;;;;;15.25;100.00;97454.13;5109558;28;20217;-66
2022/12/11 09:06:17;;;;;;;0.73;0.73;;;;;;;15.27;100.00;97470.31;5107555;28;20266;-66
2022/12/11 09:08:45;;;;;;;0.60;0.60;;;;;;;15.36;100.00;97474.75;5109945;28;20654;-67
2022/12/11 09:11:17;;;;;;;0.70;0.70;;;;;;;15.44;100.00;97462.06;5110602;28;20209;-67
2022/12/11 09:13:44;;;;;;;0.60;0.60;;;;;;;15.50;100.00;97450.44;5112531;28;20196;-67
2022/12/11 09:16:14;;;;;;;0.87;0.87;;;;;;;15.66;100.00;97454.22;5110606;28;20210;-67
2022/12/11 09:18:41;;;;;;;0.63;0.63;;;;;;;15.84;100.00;97456.22;5110223;28;20209;-67
2022/12/11 09:21:13;;;;;;;0.77;0.77;;;;;;;16.07;100.00;97452.56;5109958;28;20237;-68
2022/12/11 09:23:40;;;;;;;0.97;0.97;;;;;;;16.26;100.00;97447.50;5109447;28;20230;-67
2022/12/11 09:26:09;;;;;;;0.80;0.80;;;;;;;16.41;100.00;97446.22;5110305;28;20211;-67
2022/12/11 09:28:38;;;;;;;0.80;0.80;;;;;;;16.46;100.00;97446.66;5110734;28;20202;-67
2022/12/11 09:31:09;;;;;;;0.43;0.43;;;;;;;16.49;100.00;97438.63;5110393;28;20678;-67
2022/12/11 09:33:35;;;;;;;0.90;0.90;;;;;;;16.58;100.00;97430.09;5111826;28;20218;-67
2022/12/11 09:36:04;;;;;;;0.40;0.40;;;;;;;16.50;100.00;97419.59;5107247;28;20676;-67
2022/12/11 09:38:32;;;;;;;0.50;0.50;;;;;;;16.56;100.00;97434.59;5110249;28;20686;-66
2022/12/11 09:40:59;;;;;;;0.73;0.73;;;;;;;16.73;100.00;97426.22;5111195;28;20627;-67
2022/12/11 09:43:37;;;;;;;0.50;0.50;;;;;;;16.88;100.00;97433.59;5111776;28;20222;-67
2022/12/11 09:46:11;;;;;;;1.90;1.90;;;;;;;17.08;100.00;97433.50;5109176;28;20205;-67
2022/12/11 09:48:39;;;;;;;0.70;0.70;;;;;;;17.34;100.00;97426.03;5106012;28;20222;-68
2022/12/11 09:51:18;;;;;;;0.40;0.40;;;;;;;17.59;97.79;97419.50;5105650;28;20203;-67
2022/12/11 09:53:45;;;;;;;0.50;0.50;;;;;;;17.72;98.42;97426.03;5108000;28;20206;-66
2022/12/11 09:56:19;;;;;;;0.40;0.40;;;;;;;17.76;100.00;97401.47;5109881;28;20679;-66
2022/12/11 09:58:58;;;;;;;0.43;0.43;;;;;;;18.18;100.00;97416.66;5108446;28;20199;-67
2022/12/11 10:01:37;;;;;;;1.03;1.03;;;;;;;18.33;100.00;97408.25;5110339;28;20198;-67
2022/12/11 10:04:24;;;;;;;0.40;0.40;;;;;;;18.34;100.00;97402.13;5108961;28;20239;-67
2022/12/11 10:07:01;;;;;;;0.50;0.50;;;;;;;18.28;97.94;97407.06;5108797;28;20207;-66
2022/12/11 10:09:37;;;;;;;0.50;0.50;;;;;;;18.30;97.85;97399.94;5107784;28;20214;-67
2022/12/11 10:12:18;;;;;;;0.50;0.50;;;;;;;18.28;97.70;97397.50;5108375;28;20211;-66
2022/12/11 10:15:04;;;;;;;1.20;1.20;;;;;;;18.33;97.46;97389.28;5109609;28;20289;-67
2022/12/11 10:17:34;;;;;;;1.87;1.87;;;;;;;18.37;95.88;97393.22;5107737;28;20198;-67
2022/12/11 10:20:14;;;;;;;1.30;1.30;;;;;;;18.36;96.80;97389.00;5105809;28;20200;-66
2022/12/11 10:22:41;;;;;;;0.40;0.40;;;;;;;18.36;96.97;97384.63;5111135;28;20585;-67
2022/12/11 10:25:17;;;;;;;0.60;0.60;;;;;;;18.36;97.81;97373.44;5109287;28;20220;-67
2022/12/11 10:27:44;;;;;;;0.70;0.70;;;;;;;18.29;97.29;97362.81;5110838;27;20670;-67
2022/12/11 10:30:16;;;;;;;0.37;0.37;;;;;;;18.34;98.45;97363.22;5109570;28;20659;-67
2022/12/11 10:32:51;;;;;;;0.50;0.50;;;;;;;18.37;97.68;97364.69;5108799;28;20697;-66
2022/12/11 10:35:33;;;;;;;0.40;0.40;;;;;;;18.37;96.96;97359.50;5109723;28;20257;-66
2022/12/11 10:38:12;;;;;;;0.57;0.57;;;;;;;18.43;95.39;97352.91;5108511;28;20229;-68
2022/12/11 10:40:40;;;;;;;0.50;0.50;;;;;;;18.47;94.72;97349.91;5107057;28;20198;-67
2022/12/11 10:43:06;;;;;;;0.40;0.40;;;;;;;18.52;95.61;97355.50;5110000;28;20202;-67
2022/12/11 10:45:33;;;;;;;0.40;0.40;;;;;;;18.54;94.87;97358.78;5108911;28;20199;-67
2022/12/11 10:48:07;;;;;;;0.47;0.47;;;;;;;18.55;94.01;97354.38;5108391;28;20200;-67
2022/12/11 10:50:34;;;;;;;0.40;0.40;;;;;;;18.60;90.03;97355.59;5107646;28;20669;-68
2022/12/11 10:53:01;;;;;;;0.73;0.73;;;;;;;18.57;90.26;97350.69;5108341;28;20218;-67
2022/12/11 10:55:31;;;;;;;0.50;0.50;;;;;;;18.60;93.42;97345.22;5108903;28;20232;-67
2022/12/11 10:58:01;;;;;;;0.63;0.63;;;;;;;18.62;93.06;97345.88;5107530;28;20207;-66
2022/12/11 11:00:35;;;;;;;0.53;0.53;;;;;;;18.57;92.88;97334.31;5102024;28;20942;-65
2022/12/11 11:03:20;;;;;;;0.40;0.40;;;;;;;18.55;90.94;97337.03;5105441;28;20199;-66
2022/12/11 11:05:49;;;;;;;0.43;0.43;;;;;;;18.59;91.30;97337.56;5109191;28;20613;-65
2022/12/11 11:08:19;;;;;;;0.90;0.90;;;;;;;18.56;86.79;97328.28;5109821;28;20210;-67
2022/12/11 11:10:54;;;;;;;0.67;0.67;;;;;;;18.54;85.64;97330.22;5109975;28;20594;-68
2022/12/11 11:13:22;;;;;;;0.40;0.40;;;;;;;18.58;87.80;97330.75;5105105;28;20226;-66
2022/12/11 11:15:50;;;;;;;1.00;1.00;;;;;;;18.55;88.66;97331.84;5106673;28;20203;-68
2022/12/11 11:18:25;;;;;;;0.50;0.50;;;;;;;18.45;88.65;97320.66;5105839;28;20195;-66
2022/12/11 11:20:53;;;;;;;0.37;0.37;;;;;;;18.41;88.41;97329.72;5107311;28;20216;-67
2022/12/11 11:23:21;;;;;;;0.40;0.40;;;;;;;18.49;88.73;97328.97;5106496;28;20209;-67
2022/12/11 11:25:54;;;;;;;0.30;0.30;;;;;;;18.45;86.56;97335.44;5107706;28;20631;-66
2022/12/11 11:28:24;;;;;;;0.67;0.67;;;;;;;18.45;89.25;97320.66;5108018;28;20670;-68
2022/12/11 11:30:58;;;;;;;0.50;0.50;;;;;;;18.30;87.58;97306.56;5107793;28;20203;-68
2022/12/11 11:33:27;;;;;;;0.50;0.50;;;;;;;18.41;87.37;97308.97;5104863;28;20499;-66
2022/12/11 11:35:56;;;;;;;0.70;0.70;;;;;;;18.43;88.53;97314.00;5108097;28;20662;-67
2022/12/11 11:38:26;;;;;;;5.50;0.93;;;;;;;18.44;88.10;97313.06;5103253;28;20276;-65
2022/12/11 11:40:58;;;;;;;0.50;0.50;;;;;;;18.42;87.42;97315.78;5105580;28;20200;-67
2022/12/11 11:43:34;;;;;;;0.73;0.73;;;;;;;18.45;87.46;97319.88;5099075;28;20201;-67
2022/12/11 11:46:08;;;;;;;0.53;0.53;;;;;;;18.51;88.61;97320.16;5107834;28;20259;-67
2022/12/11 11:48:44;;;;;;;0.40;0.40;;;;;;;18.56;89.59;97319.69;5111252;28;20646;-67